createdAt,value
2017-04-18T00:00:11.637Z,71.54
2017-04-18T00:00:52.433Z,71.54
2017-04-18T00:01:33.229Z,71.54
2017-04-18T00:02:13.917Z,71.25
2017-04-18T00:02:54.662Z,71.54
2017-04-18T00:03:35.419Z,71.54
2017-04-18T00:04:16.173Z,71.54
2017-04-18T00:04:56.963Z,71.54
2017-04-18T00:05:37.730Z,71.73
2017-04-18T00:06:18.528Z,71.54
2017-04-18T00:06:59.895Z,71.64
2017-04-18T00:07:40.649Z,71.54
2017-04-18T00:08:21.358Z,71.25
2017-04-18T00:09:02.091Z,71.64
2017-04-18T00:09:42.861Z,71.34
2017-04-18T00:10:23.610Z,71.54
2017-04-18T00:11:04.378Z,71.54
2017-04-18T00:11:45.107Z,71.64
2017-04-18T00:12:25.825Z,71.54
2017-04-18T00:13:06.542Z,71.73
2017-04-18T00:13:47.378Z,71.25
2017-04-18T00:14:28.076Z,71.44
2017-04-18T00:15:08.778Z,71.92
2017-04-18T00:15:49.460Z,71.64
2017-04-18T00:16:30.242Z,71.83
2017-04-18T00:17:10.940Z,71.83
2017-04-18T00:17:51.703Z,71.44
2017-04-18T00:18:32.454Z,71.73
2017-04-18T00:19:13.230Z,71.73
2017-04-18T00:19:54.039Z,72.02
2017-04-18T00:20:34.854Z,71.64
2017-04-18T00:21:15.604Z,71.92
2017-04-18T00:21:56.413Z,72.5
2017-04-18T00:22:37.169Z,71.83
2017-04-18T00:23:17.902Z,71.92
2017-04-18T00:23:58.688Z,71.64
2017-04-18T00:24:39.447Z,71.73
2017-04-18T00:25:20.228Z,71.92
2017-04-18T00:26:01.001Z,72.02
2017-04-18T00:26:41.778Z,71.92
2017-04-18T00:27:22.530Z,71.54
2017-04-18T00:28:03.188Z,71.64
2017-04-18T00:28:43.976Z,71.92
2017-04-18T00:29:24.747Z,71.64
2017-04-18T00:30:05.487Z,71.83
2017-04-18T00:30:46.168Z,71.64
2017-04-18T00:31:26.921Z,72.02
2017-04-18T00:32:07.692Z,71.83
2017-04-18T00:32:48.460Z,71.64
2017-04-18T00:33:29.188Z,71.54
2017-04-18T00:34:09.983Z,71.64
2017-04-18T00:34:50.761Z,71.73
2017-04-18T00:35:31.480Z,72.02
2017-04-18T00:36:12.246Z,72.12
2017-04-18T00:36:53.016Z,72.02
2017-04-18T00:37:33.709Z,72.02
2017-04-18T00:38:14.509Z,72.79
2017-04-18T00:38:55.350Z,71.83
2017-04-18T00:39:36.103Z,72.6
2017-04-18T00:40:17.858Z,72.41
2017-04-18T00:40:58.663Z,72.41
2017-04-18T00:41:39.436Z,72.41
2017-04-18T00:42:20.130Z,72.5
2017-04-18T00:43:00.849Z,72.6
2017-04-18T00:43:41.567Z,72.41
2017-04-18T00:44:22.276Z,72.5
2017-04-18T00:45:03.132Z,72.41
2017-04-18T00:45:43.817Z,71.83
2017-04-18T00:46:24.558Z,72.41
2017-04-18T00:47:05.322Z,71.92
2017-04-18T00:47:46.202Z,72.41
2017-04-18T00:48:27.038Z,72.02
2017-04-18T00:49:07.771Z,72.41
2017-04-18T00:49:48.549Z,71.92
2017-04-18T00:50:29.284Z,72.21
2017-04-18T00:51:10.013Z,72.31
2017-04-18T00:51:50.773Z,72.31
2017-04-18T00:52:31.557Z,72.21
2017-04-18T00:53:12.277Z,72.41
2017-04-18T00:53:52.987Z,71.83
2017-04-18T00:54:33.733Z,72.12
2017-04-18T00:55:14.466Z,72.31
2017-04-18T00:55:55.249Z,72.5
2017-04-18T00:56:35.977Z,71.92
2017-04-18T00:57:16.730Z,72.31
2017-04-18T00:57:57.494Z,71.92
2017-04-18T00:58:38.240Z,71.92
2017-04-18T00:59:19.033Z,71.92
2017-04-18T00:59:59.826Z,71.92
2017-04-18T01:00:40.511Z,71.83
2017-04-18T01:01:21.303Z,72.02
2017-04-18T01:02:02.656Z,71.92
2017-04-18T01:02:42.845Z,71.92
2017-04-18T01:03:23.638Z,72.02
2017-04-18T01:04:04.491Z,72.31
2017-04-18T01:04:45.116Z,72.31
2017-04-18T01:05:25.905Z,72.21
2017-04-18T01:06:06.664Z,72.21
2017-04-18T01:06:47.473Z,71.83
2017-04-18T01:07:28.257Z,72.12
2017-04-18T01:08:08.932Z,72.21
2017-04-18T01:08:49.632Z,72.31
2017-04-18T01:09:30.435Z,72.12
2017-04-18T01:10:11.338Z,72.12
2017-04-18T01:10:52.075Z,72.02
2017-04-18T01:11:32.849Z,72.21
2017-04-18T01:12:13.563Z,72.21
2017-04-18T01:12:54.248Z,72.02
2017-04-18T01:13:35.000Z,71.92
2017-04-18T01:14:15.723Z,72.21
2017-04-18T01:14:56.467Z,72.02
2017-04-18T01:15:37.166Z,71.83
2017-04-18T01:16:17.912Z,72.02
2017-04-18T01:16:58.667Z,72.12
2017-04-18T01:17:39.407Z,72.31
2017-04-18T01:18:20.210Z,72.31
2017-04-18T01:19:00.975Z,71.92
2017-04-18T01:19:41.694Z,72.6
2017-04-18T01:20:22.406Z,72.31
2017-04-18T01:21:03.137Z,71.73
2017-04-18T01:21:43.944Z,72.21
2017-04-18T01:22:24.621Z,72.21
2017-04-18T01:23:05.305Z,72.02
2017-04-18T01:23:46.025Z,71.92
2017-04-18T01:24:26.846Z,72.02
2017-04-18T01:25:07.601Z,72.02
2017-04-18T01:25:48.368Z,71.92
2017-04-18T01:26:29.119Z,72.21
2017-04-18T01:27:09.932Z,71.83
2017-04-18T01:27:50.627Z,72.41
2017-04-18T01:28:31.399Z,72.02
2017-04-18T01:29:12.136Z,71.92
2017-04-18T01:29:52.863Z,71.73
2017-04-18T01:30:33.591Z,72.12
2017-04-18T01:31:14.418Z,72.21
2017-04-18T01:31:55.184Z,72.02
2017-04-18T01:32:36.018Z,71.83
2017-04-18T01:33:16.722Z,72.5
2017-04-18T01:33:57.504Z,72.54
2017-04-18T01:34:38.200Z,72.12
2017-04-18T01:35:18.966Z,71.44
2017-04-18T01:35:59.670Z,71.64
2017-04-18T01:36:40.445Z,71.54
2017-04-18T01:37:21.232Z,71.92
2017-04-18T01:38:01.906Z,71.83
2017-04-18T01:40:02.265Z,71.73
2017-04-18T01:40:43.061Z,72.06
2017-04-18T01:41:23.868Z,72.25
2017-04-18T01:42:04.537Z,71.77
2017-04-18T01:42:45.442Z,71.54
2017-04-18T01:43:26.207Z,71.86
2017-04-18T01:44:07.055Z,71.92
2017-04-18T01:44:47.861Z,71.86
2017-04-18T01:45:28.555Z,71.86
2017-04-18T01:46:09.370Z,71.58
2017-04-18T01:46:50.020Z,71.67
2017-04-18T01:47:30.799Z,72.06
2017-04-18T01:48:11.513Z,71.86
2017-04-18T01:48:52.313Z,72.06
2017-04-18T01:49:33.019Z,71.96
2017-04-18T01:50:13.887Z,71.44
2017-04-18T01:50:54.709Z,71.77
2017-04-18T01:51:35.487Z,71.48
2017-04-18T01:52:16.233Z,71.48
2017-04-18T01:52:57.024Z,71.77
2017-04-18T01:53:37.757Z,71.67
2017-04-18T01:54:18.500Z,71.48
2017-04-18T01:54:59.260Z,71.58
2017-04-18T01:55:40.012Z,71.58
2017-04-18T01:56:20.726Z,72.12
2017-04-18T01:57:01.414Z,71.38
2017-04-18T01:57:42.168Z,71.64
2017-04-18T01:58:22.994Z,71.06
2017-04-18T01:59:03.693Z,71.19
2017-04-18T01:59:44.463Z,71.34
2017-04-18T02:00:25.150Z,71.92
2017-04-18T02:01:05.915Z,71.38
2017-04-18T02:01:46.661Z,71.58
2017-04-18T02:02:27.332Z,70.9
2017-04-18T02:03:08.091Z,71.58
2017-04-18T02:03:48.869Z,71.96
2017-04-18T02:04:29.569Z,71.58
2017-04-18T02:05:10.302Z,71.58
2017-04-18T02:05:51.049Z,71.67
2017-04-18T02:06:31.899Z,71.58
2017-04-18T02:07:12.584Z,71.48
2017-04-18T02:07:53.346Z,71.38
2017-04-18T02:08:34.069Z,71.38
2017-04-18T02:09:29.686Z,71.38
2017-04-18T02:10:10.423Z,71.86
2017-04-18T02:10:51.115Z,71.44
2017-04-18T02:11:31.936Z,71.77
2017-04-18T02:12:12.649Z,71.77
2017-04-18T02:12:53.515Z,71.67
2017-04-18T02:13:34.223Z,71.38
2017-04-18T02:14:14.972Z,71.58
2017-04-18T02:14:55.774Z,71.67
2017-04-18T02:15:36.498Z,71.38
2017-04-18T02:16:17.282Z,71.77
2017-04-18T02:16:58.040Z,71.38
2017-04-18T02:17:38.772Z,71.58
2017-04-18T02:18:19.478Z,71.38
2017-04-18T02:19:00.186Z,71.58
2017-04-18T02:19:40.997Z,71.48
2017-04-18T02:20:21.712Z,71.58
2017-04-18T02:21:02.402Z,71.86
2017-04-18T02:21:43.190Z,71.38
2017-04-18T02:22:23.928Z,71.96
2017-04-18T02:23:04.715Z,71.77
2017-04-18T02:23:45.433Z,71.86
2017-04-18T02:24:26.126Z,71.77
2017-04-18T02:25:06.912Z,71.77
2017-04-18T02:25:47.635Z,71.38
2017-04-18T02:26:28.359Z,71.58
2017-04-18T02:27:09.116Z,71.67
2017-04-18T02:27:49.836Z,71.48
2017-04-18T02:28:30.544Z,71.96
2017-04-18T02:29:11.240Z,71.48
2017-04-18T02:29:52.063Z,71.48
2017-04-18T02:30:32.820Z,71.48
2017-04-18T02:31:13.668Z,71.38
2017-04-18T02:31:54.386Z,71.48
2017-04-18T02:32:35.197Z,71.58
2017-04-18T02:33:15.905Z,71.48
2017-04-18T02:33:56.657Z,71.58
2017-04-18T02:34:37.499Z,71.48
2017-04-18T02:35:18.298Z,71.28
2017-04-18T02:35:59.047Z,71.38
2017-04-18T02:36:39.815Z,71.48
2017-04-18T02:37:20.511Z,71.48
2017-04-18T02:38:01.296Z,70.9
2017-04-18T02:38:42.046Z,71.77
2017-04-18T02:39:22.845Z,71.58
2017-04-18T02:40:03.544Z,71.77
2017-04-18T02:40:44.303Z,71.77
2017-04-18T02:41:25.045Z,71.58
2017-04-18T02:42:05.775Z,71.86
2017-04-18T02:42:46.512Z,71.38
2017-04-18T02:43:27.248Z,71.48
2017-04-18T02:44:08.027Z,71.77
2017-04-18T02:44:48.867Z,71.48
2017-04-18T02:45:29.612Z,71.48
2017-04-18T02:46:10.375Z,71.48
2017-04-18T02:46:51.159Z,71.58
2017-04-18T02:47:31.858Z,71.58
2017-04-18T02:48:12.583Z,71.77
2017-04-18T02:48:53.365Z,71.77
2017-04-18T02:49:34.148Z,71.58
2017-04-18T02:50:14.929Z,71.58
2017-04-18T02:50:55.649Z,71.86
2017-04-18T02:51:36.422Z,71.38
2017-04-18T02:52:17.156Z,71.67
2017-04-18T02:52:57.888Z,71.38
2017-04-18T02:53:38.675Z,71.48
2017-04-18T02:54:19.418Z,71.77
2017-04-18T02:55:00.255Z,71.96
2017-04-18T02:55:40.943Z,71.58
2017-04-18T02:56:21.674Z,71.86
2017-04-18T02:57:02.460Z,71.48
2017-04-18T02:57:43.155Z,71.48
2017-04-18T02:58:23.976Z,71.67
2017-04-18T02:59:04.711Z,71.77
2017-04-18T02:59:45.490Z,71.67
2017-04-18T03:00:26.232Z,71.96
2017-04-18T03:01:06.973Z,71.58
2017-04-18T03:01:47.737Z,71.77
2017-04-18T03:02:28.459Z,71.77
2017-04-18T03:03:09.273Z,71.48
2017-04-18T03:03:50.013Z,71.38
2017-04-18T03:04:30.703Z,71.38
2017-04-18T03:05:11.434Z,71.58
2017-04-18T03:05:52.154Z,71.38
2017-04-18T03:06:32.986Z,71.48
2017-04-18T03:07:13.744Z,71.38
2017-04-18T03:07:54.564Z,71.86
2017-04-18T03:08:35.271Z,71.48
2017-04-18T03:09:15.989Z,71.38
2017-04-18T03:09:56.714Z,71.48
2017-04-18T03:10:37.421Z,71.67
2017-04-18T03:11:18.197Z,71.28
2017-04-18T03:11:59.121Z,71.38
2017-04-18T03:12:39.858Z,71.58
2017-04-18T03:13:20.656Z,71.58
2017-04-18T03:14:01.372Z,71.28
2017-04-18T03:14:42.168Z,71.58
2017-04-18T03:15:22.927Z,71.58
2017-04-18T03:16:03.707Z,71.58
2017-04-18T03:16:45.259Z,71.58
2017-04-18T03:17:25.301Z,71.58
2017-04-18T03:18:06.028Z,71.48
2017-04-18T03:18:46.732Z,71.48
2017-04-18T03:19:27.439Z,71.48
2017-04-18T03:20:08.760Z,71.38
2017-04-18T03:20:48.914Z,71.48
2017-04-18T03:21:29.691Z,71.58
2017-04-18T03:22:10.399Z,70.7
2017-04-18T03:22:51.176Z,71.58
2017-04-18T03:23:31.938Z,71.58
2017-04-18T03:24:12.637Z,71.48
2017-04-18T03:24:53.379Z,71.48
2017-04-18T03:25:34.130Z,71.48
2017-04-18T03:26:14.956Z,70.8
2017-04-18T03:26:55.730Z,71.58
2017-04-18T03:27:36.470Z,71.09
2017-04-18T03:28:17.274Z,71.67
2017-04-18T03:28:58.070Z,71.38
2017-04-18T03:29:38.756Z,71.38
2017-04-18T03:30:19.512Z,71.48
2017-04-18T03:31:00.361Z,71.58
2017-04-18T03:31:41.159Z,70.7
2017-04-18T03:32:21.895Z,71.09
2017-04-18T03:33:02.634Z,71.09
2017-04-18T03:33:43.360Z,71.58
2017-04-18T03:34:24.167Z,70.9
2017-04-18T03:35:04.830Z,71.19
2017-04-18T03:35:45.581Z,70.9
2017-04-18T03:36:26.392Z,71.09
2017-04-18T03:37:07.157Z,70.7
2017-04-18T03:37:47.891Z,70.7
2017-04-18T03:38:28.665Z,71.09
2017-04-18T03:39:09.496Z,70.8
2017-04-18T03:40:05.009Z,70.8
2017-04-18T03:40:45.732Z,70.8
2017-04-18T03:41:26.452Z,71.09
2017-04-18T03:42:07.154Z,71.09
2017-04-18T03:42:47.889Z,70.9
2017-04-18T03:43:28.641Z,71.58
2017-04-18T03:44:09.404Z,71.58
2017-04-18T03:44:50.168Z,70.9
2017-04-18T03:45:30.976Z,71.58
2017-04-18T03:46:11.758Z,71.09
2017-04-18T03:46:52.525Z,71.58
2017-04-18T03:47:33.237Z,71
2017-04-18T03:48:14.008Z,71.09
2017-04-18T03:48:54.748Z,71.58
2017-04-18T03:49:35.525Z,71.58
2017-04-18T03:50:16.242Z,71.48
2017-04-18T03:50:57.034Z,71.58
2017-04-18T03:51:37.813Z,71.48
2017-04-18T03:52:18.573Z,71.67
2017-04-18T03:52:59.366Z,71.48
2017-04-18T03:53:40.171Z,71.67
2017-04-18T03:54:20.925Z,71.58
2017-04-18T03:55:01.626Z,71.67
2017-04-18T03:55:42.391Z,71.58
2017-04-18T03:56:23.133Z,71.67
2017-04-18T03:57:03.945Z,71.58
2017-04-18T03:57:44.659Z,71.58
2017-04-18T03:58:25.456Z,70.8
2017-04-18T03:59:06.181Z,70.8
2017-04-18T03:59:46.868Z,70.61
2017-04-18T04:00:27.658Z,70.8
2017-04-18T04:01:08.428Z,71.09
2017-04-18T04:01:49.236Z,70.9
2017-04-18T04:02:30.682Z,70.9
2017-04-18T04:03:11.485Z,71
2017-04-18T04:03:52.200Z,71.09
2017-04-18T04:04:32.882Z,70.9
2017-04-18T04:05:13.693Z,70.51
2017-04-18T04:05:54.467Z,71.19
2017-04-18T04:06:35.190Z,71.09
2017-04-18T04:07:15.927Z,70.9
2017-04-18T04:07:56.744Z,70.8
2017-04-18T04:08:37.454Z,70.7
2017-04-18T04:09:18.192Z,70.9
2017-04-18T04:09:58.930Z,70.9
2017-04-18T04:10:39.638Z,70.8
2017-04-18T04:11:20.400Z,70.9
2017-04-18T04:12:01.242Z,70.7
2017-04-18T04:12:42.699Z,70.9
2017-04-18T04:13:23.519Z,70.9
2017-04-18T04:14:04.367Z,71.28
2017-04-18T04:14:45.102Z,70.9
2017-04-18T04:15:25.796Z,70.8
2017-04-18T04:16:06.536Z,71
2017-04-18T04:16:47.310Z,70.9
2017-04-18T04:17:28.665Z,70.7
2017-04-18T04:18:09.523Z,70.8
2017-04-18T04:18:50.217Z,70.7
2017-04-18T04:19:31.023Z,70.7
2017-04-18T04:20:12.334Z,70.8
2017-04-18T04:20:53.103Z,70.9
2017-04-18T04:21:33.881Z,70.9
2017-04-18T04:22:14.662Z,70.61
2017-04-18T04:22:55.429Z,71
2017-04-18T04:23:36.794Z,71.48
2017-04-18T04:24:17.918Z,71.09
2017-04-18T04:24:59.296Z,71.38
2017-04-18T06:36:53.547Z,66.69
2017-04-18T06:37:35.666Z,65.91
2017-04-18T06:38:17.040Z,66.11
2017-04-18T06:38:57.802Z,66.24
2017-04-18T06:39:38.563Z,66.11
2017-04-18T06:40:19.302Z,66.05
2017-04-18T06:41:00.004Z,66.43
2017-04-18T06:41:40.828Z,66.24
2017-04-18T06:42:21.559Z,66.05
2017-04-18T06:43:02.381Z,66.33
2017-04-18T06:43:43.177Z,66.05
2017-04-18T06:44:24.008Z,66.33
2017-04-18T06:45:04.819Z,66.33
2017-04-18T06:45:45.585Z,65.85
2017-04-18T06:46:26.350Z,66.24
2017-04-18T06:47:07.089Z,65.47
2017-04-18T06:47:48.621Z,65.37
2017-04-18T06:48:28.556Z,65.66
2017-04-18T06:49:09.288Z,65.56
2017-04-18T06:49:50.049Z,65.85
2017-04-18T06:50:30.882Z,65.75
2017-04-18T06:51:11.684Z,65.88
2017-04-18T06:51:52.406Z,65.75
2017-04-18T06:52:33.207Z,65.75
2017-04-18T06:53:13.994Z,65.17
2017-04-18T06:53:54.818Z,64.98
2017-04-18T06:54:35.624Z,65.08
2017-04-18T06:55:16.323Z,65.01
2017-04-18T06:55:57.085Z,64.92
2017-04-18T06:56:37.917Z,65.78
2017-04-18T06:57:18.608Z,65.69
2017-04-18T06:57:59.413Z,64.92
2017-04-18T06:58:40.199Z,65.5
2017-04-18T06:59:20.982Z,65.3
2017-04-18T07:00:01.677Z,65.01
2017-04-18T07:00:42.405Z,64.92
2017-04-18T07:01:23.190Z,65.01
2017-04-18T07:02:04.079Z,64.92
2017-04-18T07:02:44.817Z,64.82
2017-04-18T07:03:25.684Z,64.92
2017-04-18T07:04:06.545Z,65.11
2017-04-18T07:04:47.267Z,64.82
2017-04-18T07:05:28.144Z,65.01
2017-04-18T07:06:08.900Z,64.82
2017-04-18T07:06:50.635Z,64.72
2017-04-18T07:07:31.057Z,64.63
2017-04-18T12:31:48.852Z,71.86
2017-04-18T12:33:51.357Z,71.67
2017-04-18T12:34:32.093Z,71.9
2017-04-18T12:35:12.848Z,71.86
2017-04-18T12:35:53.571Z,71.7
2017-04-18T12:36:34.374Z,71.67
2017-04-18T12:37:15.098Z,71.8
2017-04-18T12:37:55.871Z,72
2017-04-18T12:42:55.201Z,71.77
2017-04-18T12:43:35.990Z,71.58
2017-04-18T12:44:16.774Z,71.9
2017-04-18T12:47:53.208Z,71.77
2017-04-18T12:48:33.979Z,71.8
2017-04-18T12:49:14.764Z,71.32
2017-04-18T12:49:55.543Z,72
2017-04-18T12:50:37.391Z,71.77
2017-04-18T12:51:18.141Z,71.8
2017-04-18T12:51:58.823Z,71.42
2017-04-18T12:52:39.641Z,72
2017-04-18T12:53:20.387Z,71.61
2017-04-18T12:54:01.280Z,72
2017-04-18T12:54:42.113Z,71.96
2017-04-18T12:55:23.625Z,71.77
2017-04-18T12:57:26.496Z,71.8
2017-04-18T12:58:07.292Z,71.9
2017-04-18T12:58:49.940Z,71.8
2017-04-18T12:59:29.932Z,71.38
2017-04-18T13:01:45.379Z,71.38
2017-04-18T13:02:27.009Z,71.32
2017-04-18T13:03:08.514Z,71.32
2017-04-18T13:03:49.261Z,71.28
2017-04-18T13:04:30.018Z,71.67
2017-04-18T13:05:10.721Z,71.58
2017-04-18T13:05:51.642Z,71.58
2017-04-18T13:11:22.841Z,71.61
2017-04-18T13:12:03.631Z,71.42
2017-04-18T13:12:46.969Z,71.58
2017-04-18T13:13:27.033Z,71.58
2017-04-18T13:14:07.843Z,71.67
2017-04-18T13:14:48.646Z,71.48
2017-04-18T13:15:29.423Z,71.61
2017-04-18T13:17:44.864Z,71.9
2017-04-18T13:18:27.655Z,71.61
2017-04-18T13:19:08.534Z,71.58
2017-04-18T13:19:49.317Z,71.58
2017-04-18T13:20:30.143Z,71.61
2017-04-18T13:21:10.847Z,71.67
2017-04-18T13:21:51.668Z,71.96
2017-04-18T13:22:32.448Z,71.48
2017-04-18T13:23:13.239Z,71.48
2017-04-18T13:23:54.008Z,71.77
2017-04-18T13:24:34.734Z,71.8
2017-04-18T13:25:15.481Z,71.67
2017-04-18T13:27:31.056Z,71.8
2017-04-18T13:28:11.933Z,71.61
2017-04-18T13:28:52.739Z,71.86
2017-04-18T13:29:33.558Z,71.96
2017-04-18T13:30:15.006Z,71.38
2017-04-18T13:30:55.724Z,71.96
2017-04-18T13:31:37.080Z,71.48
2017-04-18T13:32:18.504Z,71.48
2017-04-18T13:32:59.435Z,71.8
2017-04-18T13:33:40.191Z,71.8
2017-04-18T13:34:20.923Z,71.77
2017-04-18T13:35:01.645Z,71.38
2017-04-18T13:35:42.548Z,71.42
2017-04-18T13:36:23.338Z,71.42
2017-04-18T13:37:04.749Z,71.42
2017-04-18T13:37:45.531Z,71.7
2017-04-18T13:38:26.302Z,71.48
2017-04-18T13:39:07.041Z,71.22
2017-04-18T13:39:47.850Z,71.61
2017-04-18T13:40:28.846Z,71.61
2017-04-18T13:41:09.734Z,71.7
2017-04-18T13:41:50.437Z,71.77
2017-04-18T13:42:31.110Z,71.58
2017-04-18T13:43:11.870Z,71.58
2017-04-18T13:43:52.722Z,71.38
2017-04-18T13:44:33.431Z,71.51
2017-04-18T13:45:14.240Z,71.61
2017-04-18T13:45:55.040Z,71.48
2017-04-18T13:46:35.807Z,71.8
2017-04-18T13:47:17.132Z,71.22
2017-04-18T13:47:57.818Z,71.61
2017-04-18T13:48:38.593Z,71.58
2017-04-18T13:49:19.347Z,71.42
2017-04-18T13:50:00.072Z,71.42
2017-04-18T13:50:40.811Z,71.51
2017-04-18T13:51:21.617Z,71.61
2017-04-18T13:52:02.416Z,71.51
2017-04-18T13:52:43.137Z,71.38
2017-04-18T13:53:23.917Z,71.32
2017-04-18T13:54:04.802Z,71.51
2017-04-18T13:54:45.649Z,71.42
2017-04-18T13:55:26.377Z,71.61
2017-04-18T13:56:07.141Z,71.51
2017-04-18T13:58:02.004Z,71.61
2017-04-18T13:58:42.725Z,71.61
2017-04-18T13:59:23.454Z,71.42
2017-04-18T14:00:04.250Z,71.48
2017-04-18T14:00:45.035Z,71.7
2017-04-18T14:01:25.894Z,71.7
2017-04-18T14:02:06.753Z,71.42
2017-04-18T14:02:47.534Z,71.7
2017-04-18T14:03:28.361Z,71.58
2017-04-18T14:04:10.107Z,71.58
2017-04-18T14:04:50.813Z,71.61
2017-04-18T14:05:31.577Z,71.67
2017-04-18T14:06:12.308Z,71.61
2017-04-18T14:06:53.696Z,71.12
2017-04-18T14:07:35.352Z,71.61
2017-04-18T14:08:15.151Z,71.61
2017-04-18T14:08:55.914Z,71.61
2017-04-18T14:09:36.768Z,70.94
2017-04-18T14:10:18.348Z,70.84
2017-04-18T14:10:58.285Z,70.94
2017-04-18T14:11:39.009Z,71.03
2017-04-18T14:12:19.906Z,70.36
2017-04-18T14:13:00.714Z,70.16
2017-04-18T14:13:42.353Z,70.16
2017-04-18T14:14:22.267Z,70.36
2017-04-18T14:15:03.007Z,70.26
2017-04-18T14:15:44.352Z,70.84
2017-04-18T14:16:24.518Z,70.26
2017-04-18T14:17:05.372Z,70.74
2017-04-18T14:17:46.172Z,71.12
2017-04-18T14:18:27.834Z,71.12
2017-04-18T14:19:07.669Z,70.94
2017-04-18T14:21:03.274Z,71.03
2017-04-18T14:21:43.999Z,70.74
2017-04-18T14:25:19.196Z,70.26
2017-04-18T14:26:00.800Z,70.54
2017-04-18T14:26:41.627Z,70.36
2017-04-18T14:27:23.774Z,70.64
2017-04-18T14:28:05.464Z,70.54
2017-04-18T14:28:46.141Z,70.54
2017-04-18T14:29:27.849Z,70.84
2017-04-18T14:30:08.596Z,70.74
2017-04-18T14:30:49.356Z,70.54
2017-04-18T14:31:30.906Z,70.54
2017-04-18T14:32:11.721Z,70.45
2017-04-18T14:32:53.358Z,70.84
2017-04-18T14:33:34.761Z,70.64
2017-04-18T14:34:15.669Z,70.74
2017-04-18T14:34:56.445Z,70.45
2017-04-18T14:35:37.186Z,70.74
2017-04-18T14:36:17.934Z,70.16
2017-04-18T14:36:58.707Z,70.45
2017-04-18T14:37:39.522Z,70.74
2017-04-18T14:38:20.240Z,70.16
2017-04-18T14:39:02.261Z,70.36
2017-04-18T14:39:42.405Z,70.16
2017-04-18T14:40:23.168Z,70.16
2017-04-18T14:41:03.903Z,70.74
2017-04-18T14:41:44.657Z,70.45
2017-04-18T14:42:25.392Z,70.16
2017-04-18T14:43:06.154Z,70.45
2017-04-18T14:43:47.642Z,70.16
2017-04-18T14:44:28.400Z,70.74
2017-04-18T14:45:09.176Z,70.26
2017-04-18T14:45:50.032Z,70.16
2017-04-18T14:46:30.788Z,70.26
2017-04-18T14:47:11.553Z,70.16
2017-04-18T14:47:52.414Z,70.54
2017-04-18T14:48:33.250Z,70.1
2017-04-18T14:49:14.024Z,70.26
2017-04-18T14:49:54.863Z,70.26
2017-04-18T14:50:35.563Z,70.36
2017-04-18T14:51:16.401Z,70.94
2017-04-18T14:51:57.121Z,70.84
2017-04-18T14:52:37.852Z,70.74
2017-04-18T14:53:18.556Z,70.64
2017-04-18T14:53:59.314Z,70.84
2017-04-18T14:54:56.084Z,70.54
2017-04-18T14:55:36.812Z,70.64
2017-04-18T14:56:17.634Z,70.64
2017-04-18T14:56:58.390Z,70.84
2017-04-18T14:57:39.740Z,70.45
2017-04-18T14:58:20.481Z,70.16
2017-04-18T14:59:01.252Z,70.16
2017-04-18T14:59:41.953Z,70.39
2017-04-18T15:00:22.797Z,70.39
2017-04-18T16:03:44.497Z,70.64
2017-04-18T16:04:25.217Z,70.64
2017-04-18T16:05:05.905Z,70.39
2017-04-18T16:05:46.682Z,70.06
2017-04-18T16:06:27.429Z,69.58
2017-04-18T16:07:08.212Z,70.16
2017-04-18T16:07:49.020Z,70.06
2017-04-18T16:08:29.792Z,69.78
2017-04-18T16:09:10.651Z,70.16
2017-04-18T16:09:51.453Z,70.16
2017-04-18T16:10:32.335Z,70.1
2017-04-18T16:11:13.101Z,69.32
2017-04-18T16:11:53.822Z,69.58
2017-04-18T16:12:34.590Z,69.52
2017-04-18T16:13:15.387Z,69.52
2017-04-18T16:13:56.942Z,69.42
2017-04-18T16:14:37.744Z,69.62
2017-04-18T16:15:18.992Z,69.42
2017-04-18T16:16:00.307Z,69.62
2017-04-18T16:16:41.115Z,69.81
2017-04-18T16:17:22.526Z,69.62
2017-04-18T16:18:03.320Z,69.42
2017-04-18T16:18:44.131Z,69.71
2017-04-18T16:19:24.950Z,69.13
2017-04-18T16:20:05.718Z,69.39
2017-04-18T16:20:46.417Z,69.58
2017-04-18T16:21:27.242Z,69.78
2017-04-18T16:22:07.972Z,69.39
2017-04-18T16:22:49.450Z,70.16
2017-04-18T16:23:30.291Z,69.97
2017-04-18T16:24:11.106Z,70.64
2017-04-18T16:24:51.874Z,70.94
2017-04-18T16:25:32.642Z,70.74
2017-04-18T16:26:13.961Z,70.36
2017-04-18T16:26:54.154Z,70.36
2017-04-18T16:27:34.886Z,70.54
2017-04-18T16:28:15.725Z,70.16
2017-04-18T16:28:56.494Z,70.74
2017-04-18T16:29:37.371Z,70.36
2017-04-18T16:30:18.137Z,70.06
2017-04-18T16:30:58.872Z,69.29
2017-04-18T16:31:39.639Z,69.49
2017-04-18T16:32:20.426Z,69.58
2017-04-18T16:33:02.021Z,69.49
2017-04-18T16:33:43.453Z,69.2
2017-04-18T16:34:23.555Z,69.49
2017-04-18T16:35:04.421Z,69.2
2017-04-18T16:35:45.199Z,69.58
2017-04-18T16:36:25.906Z,69.39
2017-04-18T16:37:07.531Z,69.58
2017-04-18T16:37:48.382Z,69.39
2017-04-18T16:38:29.092Z,69.58
2017-04-18T16:39:09.837Z,69.1
2017-04-18T16:39:50.566Z,69.58
2017-04-18T16:40:31.290Z,69.39
2017-04-18T16:41:12.076Z,69.39
2017-04-18T16:41:52.856Z,69.1
2017-04-18T16:42:33.642Z,69.29
2017-04-18T16:43:14.385Z,70.16
2017-04-18T16:43:55.967Z,69.68
2017-04-18T16:44:36.818Z,69.58
2017-04-18T16:45:17.618Z,69.2
2017-04-18T16:45:58.415Z,70.06
2017-04-18T16:46:39.265Z,70.26
2017-04-18T16:47:20.082Z,69.1
2017-04-18T16:48:00.984Z,70.06
2017-04-18T16:48:41.687Z,70.36
2017-04-18T16:49:22.502Z,70.16
2017-04-18T16:50:03.216Z,69.39
2017-04-18T16:50:44.058Z,69.39
2017-04-18T16:51:24.803Z,69.29
2017-04-18T16:52:05.624Z,68.52
2017-04-18T16:52:46.409Z,69.29
2017-04-18T16:53:27.207Z,68.71
2017-04-18T16:54:07.928Z,68.62
2017-04-18T16:54:48.731Z,68.71
2017-04-18T16:55:29.511Z,68.62
2017-04-18T16:56:10.280Z,68.43
2017-04-18T16:56:51.066Z,68.81
2017-04-18T16:57:31.879Z,69
2017-04-18T16:58:12.668Z,68.91
2017-04-18T16:58:53.470Z,69.1
2017-04-18T16:59:34.226Z,68.91
2017-04-18T17:00:15.028Z,69
2017-04-18T17:00:55.746Z,68.71
2017-04-18T17:01:36.490Z,68.62
2017-04-18T17:02:17.316Z,69.68
2017-04-18T17:03:04.934Z,69.49
2017-04-18T17:03:45.766Z,69.2
2017-04-18T17:04:26.528Z,69.49
2017-04-18T17:05:07.221Z,69.49
2017-04-18T17:05:47.962Z,69.58
2017-04-18T17:06:28.748Z,69.39
2017-04-18T17:07:09.517Z,69.78
2017-04-18T17:07:50.737Z,70.26
2017-04-18T17:08:31.492Z,70.26
2017-04-18T17:09:12.285Z,69.58
2017-04-18T17:09:53.095Z,69.78
2017-04-18T17:10:33.861Z,68.91
2017-04-18T17:11:14.636Z,69.29
2017-04-18T17:11:55.358Z,69.39
2017-04-18T17:12:36.084Z,70.36
2017-04-18T17:13:16.907Z,70.06
2017-04-18T17:13:57.725Z,70.45
2017-04-18T17:14:38.519Z,70.36
2017-04-18T17:15:19.361Z,69.49
2017-04-18T17:16:00.104Z,69.87
2017-04-18T17:16:40.837Z,70.64
2017-04-18T17:17:21.522Z,70.26
2017-04-18T17:18:02.296Z,70.36
2017-04-18T17:18:43.055Z,70.45
2017-04-18T17:19:24.386Z,70.06
2017-04-18T17:20:05.828Z,70.06
2017-04-18T17:20:46.627Z,69.97
2017-04-18T17:21:27.378Z,70.26
2017-04-18T17:22:08.089Z,70.45
2017-04-18T17:22:48.892Z,70.16
2017-04-18T17:23:29.677Z,70.16
2017-04-18T17:24:10.493Z,70.06
2017-04-18T17:24:52.096Z,69.68
2017-04-18T17:25:32.936Z,69.68
2017-04-18T17:26:13.749Z,69.2
2017-04-18T17:26:54.539Z,69.58
2017-04-18T17:27:35.400Z,69.78
2017-04-18T17:28:17.004Z,68.91
2017-04-18T17:28:57.003Z,69.58
2017-04-18T17:29:38.736Z,69.1
2017-04-18T17:30:19.468Z,68.71
2017-04-18T17:31:00.997Z,68.71
2017-04-18T17:31:41.789Z,68.81
2017-04-18T17:32:22.474Z,68.33
2017-04-18T17:33:03.988Z,68.62
2017-04-18T17:33:44.748Z,68.13
2017-04-18T17:34:25.566Z,67.94
2017-04-18T17:36:41.668Z,68.33
2017-04-18T17:37:23.088Z,67.75
2017-04-18T17:38:03.855Z,68.52
2017-04-18T17:38:44.580Z,68.71
2017-04-18T17:39:25.382Z,69
2017-04-18T17:40:06.266Z,68.62
2017-04-18T17:40:47.887Z,68.52
2017-04-18T17:41:28.641Z,68.04
2017-04-18T17:42:09.330Z,68.43
2017-04-18T17:42:50.077Z,68.62
2017-04-18T17:43:30.950Z,68.13
2017-04-18T17:44:11.746Z,68.13
2017-04-18T17:44:52.515Z,67.85
2017-04-18T17:45:33.261Z,68.04
2017-04-18T17:46:14.046Z,68.23
2017-04-18T17:46:54.843Z,68.23
2017-04-18T17:47:35.623Z,68.04
2017-04-18T17:48:16.449Z,68.13
2017-04-18T17:48:57.242Z,68.23
2017-04-18T17:49:38.045Z,68.04
2017-04-18T17:50:18.827Z,67.65
2017-04-18T17:50:59.600Z,67.94
2017-04-18T17:51:40.377Z,68.33
2017-04-18T17:52:21.167Z,67.75
2017-04-18T17:53:01.926Z,68.23
2017-04-18T17:53:43.305Z,67.85
2017-04-18T17:54:24.840Z,67.85